createdAt,value
2018-12-12T00:00:01.346Z,89.25
2018-12-12T00:01:01.350Z,89.31
2018-12-12T00:02:01.329Z,89.36
2018-12-12T00:03:01.323Z,88.59
2018-12-12T00:04:01.308Z,88.73
2018-12-12T00:05:01.288Z,88.69
2018-12-12T00:06:01.282Z,89.00
2018-12-12T00:07:01.266Z,89.00
2018-12-12T00:08:01.268Z,88.48
2018-12-12T00:09:01.243Z,89.00
2018-12-12T00:10:01.459Z,89.15
2018-12-12T00:11:01.222Z,89.31
2018-12-12T00:12:01.214Z,89.67
2018-12-12T00:13:01.208Z,89.87
2018-12-12T00:14:01.428Z,89.67
2018-12-12T00:15:01.185Z,90.29
2018-12-12T00:16:01.181Z,90.60
2018-12-12T00:17:01.160Z,90.29
2018-12-12T00:18:01.145Z,89.77
2018-12-12T00:19:01.148Z,90.29
2018-12-12T00:20:01.130Z,89.42
2018-12-12T00:21:01.118Z,89.46
2018-12-12T00:22:01.106Z,89.31
2018-12-12T00:23:01.100Z,89.21
2018-12-12T00:24:01.090Z,89.15
2018-12-12T00:25:01.956Z,88.62
2018-12-12T00:26:01.058Z,88.94
2018-12-12T00:27:01.067Z,89.56
2018-12-12T00:28:01.044Z,89.15
2018-12-12T00:29:01.051Z,89.25
2018-12-12T00:30:01.013Z,89.46
2018-12-12T00:31:01.000Z,89.46
2018-12-12T00:32:00.992Z,89.36
2018-12-12T00:33:00.986Z,88.94
2018-12-12T00:34:00.981Z,88.62
2018-12-12T00:35:00.984Z,88.84
2018-12-12T00:36:01.001Z,88.94
2018-12-12T00:37:00.936Z,88.79
2018-12-12T00:38:00.925Z,88.42
2018-12-12T00:39:00.941Z,88.90
2018-12-12T00:40:00.906Z,88.69
2018-12-12T00:41:00.893Z,88.69
2018-12-12T00:42:00.900Z,88.59
2018-12-12T00:43:00.868Z,89.00
2018-12-12T00:44:00.879Z,88.84
2018-12-12T00:45:00.845Z,89.46
2018-12-12T00:46:00.834Z,89.98
2018-12-12T00:47:00.827Z,90.08
2018-12-12T00:48:00.824Z,89.77
2018-12-12T00:49:00.822Z,90.29
2018-12-12T00:50:00.796Z,90.29
2018-12-12T00:51:00.791Z,90.95
2018-12-12T00:52:00.769Z,90.91
2018-12-12T00:53:00.775Z,91.02
2018-12-12T00:54:00.776Z,91.43
2018-12-12T00:55:00.736Z,91.33
2018-12-12T00:56:00.726Z,91.37
2018-12-12T00:57:00.721Z,90.85
2018-12-12T00:58:00.702Z,91.47
2018-12-12T00:59:00.709Z,91.27
2018-12-12T01:00:00.686Z,91.27
2018-12-12T01:01:00.681Z,91.83
2018-12-12T01:02:00.663Z,92.20
2018-12-12T01:03:00.655Z,91.93
2018-12-12T01:04:00.654Z,92.24
2018-12-12T01:05:00.627Z,91.83
2018-12-12T01:06:00.624Z,92.20
2018-12-12T01:07:00.603Z,91.93
2018-12-12T01:08:00.592Z,91.99
2018-12-12T01:09:00.597Z,91.41
2018-12-12T01:10:00.598Z,91.93
2018-12-12T01:11:00.564Z,92.24
2018-12-12T01:12:00.548Z,92.35
2018-12-12T01:13:00.537Z,92.55
2018-12-12T01:14:00.541Z,93.07
2018-12-12T01:15:00.517Z,92.91
2018-12-12T01:16:00.508Z,92.49
2018-12-12T01:17:00.496Z,92.18
2018-12-12T01:18:00.481Z,92.80
2018-12-12T01:19:00.481Z,93.64
2018-12-12T01:20:00.473Z,93.12
2018-12-12T01:21:00.460Z,93.49
2018-12-12T01:22:00.455Z,92.49
2018-12-12T01:23:00.428Z,92.70
2018-12-12T01:24:00.433Z,92.70
2018-12-12T01:25:00.405Z,92.70
2018-12-12T01:26:00.408Z,92.49
2018-12-12T01:27:00.412Z,92.60
2018-12-12T01:28:00.377Z,93.23
2018-12-12T01:29:00.371Z,93.33
2018-12-12T01:30:00.349Z,93.33
2018-12-12T01:31:00.340Z,93.54
2018-12-12T01:32:00.329Z,93.43
2018-12-12T01:33:00.354Z,93.33
2018-12-12T01:34:00.320Z,93.12
2018-12-12T01:35:00.296Z,92.45
2018-12-12T01:36:00.283Z,92.97
2018-12-12T01:37:00.280Z,93.01
2018-12-12T01:38:00.264Z,93.07
2018-12-12T01:39:00.357Z,92.97
2018-12-12T01:40:00.237Z,92.49
2018-12-12T01:41:00.233Z,92.60
2018-12-12T01:42:00.230Z,92.49
2018-12-12T01:43:00.226Z,93.01
2018-12-12T01:44:00.228Z,93.01
2018-12-12T01:45:00.186Z,92.80
2018-12-12T01:46:00.173Z,92.18
2018-12-12T01:47:00.170Z,93.74
2018-12-12T01:48:00.179Z,93.64
2018-12-12T01:49:00.160Z,93.48
2018-12-12T01:50:00.157Z,93.01
2018-12-12T01:51:00.117Z,93.23
2018-12-12T01:52:00.111Z,92.80
2018-12-12T01:53:00.098Z,92.91
2018-12-12T01:54:00.108Z,93.37
2018-12-12T01:55:00.083Z,93.48
2018-12-12T01:56:00.075Z,93.48
2018-12-12T01:57:00.055Z,93.43
2018-12-12T01:58:00.040Z,93.33
2018-12-12T01:59:00.052Z,93.23
2018-12-12T02:00:00.027Z,93.54
2018-12-12T02:01:00.020Z,92.60
2018-12-12T02:01:59.995Z,93.23
2018-12-12T02:02:59.984Z,93.43
2018-12-12T02:04:00.007Z,93.54
2018-12-12T02:04:59.964Z,92.55
2018-12-12T02:05:59.952Z,93.01
2018-12-12T02:06:59.959Z,92.91
2018-12-12T02:07:59.930Z,92.49
2018-12-12T02:09:00.216Z,92.49
2018-12-12T02:09:59.909Z,93.01
2018-12-12T02:10:59.902Z,93.12
2018-12-12T02:11:59.893Z,93.12
2018-12-12T02:12:59.890Z,93.01
2018-12-12T02:13:59.860Z,93.01
2018-12-12T02:14:59.859Z,93.01
2018-12-12T02:15:59.841Z,92.80
2018-12-12T02:16:59.838Z,92.60
2018-12-12T02:17:59.832Z,93.01
2018-12-12T02:18:59.838Z,93.23
2018-12-12T02:19:59.810Z,92.91
2018-12-12T02:20:59.786Z,93.01
2018-12-12T02:21:59.781Z,93.23
2018-12-12T02:22:59.791Z,93.54
2018-12-12T02:23:59.763Z,93.27
2018-12-12T02:24:59.769Z,93.12
2018-12-12T02:25:59.735Z,93.33
2018-12-12T02:26:59.725Z,93.27
2018-12-12T02:27:59.707Z,93.43
2018-12-12T02:28:59.705Z,93.33
2018-12-12T02:29:59.702Z,93.12
2018-12-12T02:30:59.675Z,93.54
2018-12-12T02:31:59.671Z,93.54
2018-12-12T02:32:59.660Z,93.33
2018-12-12T02:33:59.645Z,93.33
2018-12-12T02:34:59.659Z,93.33
2018-12-12T02:35:59.622Z,93.27
2018-12-12T02:36:59.608Z,93.23
2018-12-12T02:37:59.601Z,93.23
2018-12-12T02:38:59.584Z,93.43
2018-12-12T02:39:59.590Z,92.80
2018-12-12T02:40:59.579Z,93.54
2018-12-12T02:41:59.554Z,93.01
2018-12-12T02:42:59.546Z,92.60
2018-12-12T02:43:59.533Z,93.01
2018-12-12T02:44:59.540Z,92.91
2018-12-12T02:45:59.520Z,92.80
2018-12-12T02:46:59.519Z,92.49
2018-12-12T02:47:59.490Z,92.60
2018-12-12T02:48:59.476Z,92.24
2018-12-12T02:49:59.484Z,92.39
2018-12-12T02:50:59.453Z,92.08
2018-12-12T02:51:59.461Z,92.24
2018-12-12T02:52:59.430Z,92.60
2018-12-12T02:53:59.418Z,92.29
2018-12-12T02:54:59.432Z,92.80
2018-12-12T02:55:59.399Z,93.33
2018-12-12T02:56:59.389Z,93.12
2018-12-12T02:57:59.413Z,92.60
2018-12-12T02:58:59.369Z,92.80
2018-12-12T02:59:59.398Z,92.91
2018-12-12T03:00:59.351Z,92.91
2018-12-12T03:01:59.333Z,92.70
2018-12-12T03:02:59.325Z,93.01
2018-12-12T03:03:59.334Z,93.01
2018-12-12T03:04:59.583Z,92.49
2018-12-12T03:05:59.294Z,92.18
2018-12-12T03:06:59.280Z,93.54
2018-12-12T03:07:59.267Z,92.91
2018-12-12T03:08:59.266Z,92.80
2018-12-12T03:09:59.293Z,93.43
2018-12-12T03:10:59.257Z,93.12
2018-12-12T03:11:59.220Z,93.01
2018-12-12T03:12:59.209Z,92.80
2018-12-12T03:13:59.199Z,93.01
2018-12-12T03:14:59.209Z,93.23
2018-12-12T03:15:59.195Z,92.80
2018-12-12T03:16:59.165Z,92.80
2018-12-12T03:17:59.158Z,92.80
2018-12-12T03:18:59.149Z,92.60
2018-12-12T03:19:59.130Z,93.64
2018-12-12T03:20:59.160Z,93.64
2018-12-12T03:21:59.123Z,93.23
2018-12-12T03:22:59.100Z,92.39
2018-12-12T03:23:59.092Z,93.01
2018-12-12T03:24:59.104Z,93.54
2018-12-12T03:25:59.488Z,93.33
2018-12-12T03:26:59.086Z,93.54
2018-12-12T03:27:59.061Z,92.18
2018-12-12T03:28:59.101Z,92.29
2018-12-12T03:29:59.023Z,93.43
2018-12-12T03:30:59.062Z,93.43
2018-12-12T03:31:59.031Z,93.01
2018-12-12T03:32:58.997Z,93.43
2018-12-12T03:33:58.981Z,93.01
2018-12-12T03:34:59.009Z,93.01
2018-12-12T03:35:58.979Z,93.33
2018-12-12T03:36:58.955Z,93.43
2018-12-12T03:37:58.937Z,93.39
2018-12-12T03:38:58.942Z,92.55
2018-12-12T03:39:58.919Z,93.07
2018-12-12T03:40:58.915Z,93.18
2018-12-12T03:41:58.900Z,92.97
2018-12-12T03:42:58.886Z,92.55
2018-12-12T03:43:58.873Z,92.97
2018-12-12T03:44:58.872Z,93.29
2018-12-12T03:45:58.858Z,92.45
2018-12-12T03:46:58.837Z,92.35
2018-12-12T03:47:58.836Z,92.35
2018-12-12T03:48:58.837Z,92.45
2018-12-12T03:49:58.809Z,92.55
2018-12-12T03:50:58.822Z,92.55
2018-12-12T03:51:58.780Z,92.14
2018-12-12T03:52:58.774Z,92.66
2018-12-12T03:53:58.772Z,92.66
2018-12-12T03:54:58.765Z,92.30
2018-12-12T03:55:58.775Z,92.24
2018-12-12T03:56:58.750Z,92.03
2018-12-12T03:57:58.734Z,91.68
2018-12-12T03:58:58.704Z,91.89
2018-12-12T03:59:58.709Z,92.14
2018-12-12T04:00:58.721Z,92.24
2018-12-12T04:01:58.698Z,92.35
2018-12-12T04:02:58.692Z,92.14
2018-12-12T04:03:58.649Z,92.45
2018-12-12T04:04:58.643Z,92.51
2018-12-12T04:05:58.635Z,92.55
2018-12-12T04:06:58.659Z,92.14
2018-12-12T04:07:58.628Z,92.55
2018-12-12T04:08:58.594Z,92.55
2018-12-12T04:09:58.632Z,92.10
2018-12-12T04:10:58.579Z,92.45
2018-12-12T04:11:58.588Z,92.30
2018-12-12T04:12:58.565Z,92.20
2018-12-12T04:13:58.558Z,92.45
2018-12-12T04:14:58.529Z,91.89
2018-12-12T04:15:58.521Z,92.55
2018-12-12T04:16:58.535Z,92.24
2018-12-12T04:17:58.525Z,92.24
2018-12-12T04:18:58.495Z,92.30
2018-12-12T04:19:58.495Z,92.51
2018-12-12T04:20:58.462Z,92.55
2018-12-12T04:21:58.461Z,92.20
2018-12-12T04:22:58.445Z,92.14
2018-12-12T04:23:58.429Z,92.24
2018-12-12T04:24:58.421Z,92.24
2018-12-12T04:25:58.446Z,92.24
2018-12-12T04:26:58.422Z,92.51
2018-12-12T04:27:58.392Z,92.45
2018-12-12T04:28:58.371Z,92.24
2018-12-12T04:29:58.381Z,92.30
2018-12-12T04:30:58.371Z,91.68
2018-12-12T04:31:58.363Z,91.99
2018-12-12T04:32:58.329Z,91.93
2018-12-12T04:33:58.322Z,91.68
2018-12-12T04:34:58.307Z,92.35
2018-12-12T04:35:58.317Z,91.99
2018-12-12T04:36:58.307Z,91.52
2018-12-12T04:37:58.282Z,92.20
2018-12-12T04:38:58.267Z,92.51
2018-12-12T04:39:58.254Z,92.10
2018-12-12T04:40:58.245Z,92.30
2018-12-12T04:41:58.825Z,92.20
2018-12-12T04:42:58.233Z,92.10
2018-12-12T04:43:58.213Z,92.10
2018-12-12T04:44:58.216Z,92.30
2018-12-12T04:45:58.191Z,92.35
2018-12-12T04:46:58.188Z,92.35
2018-12-12T04:47:58.176Z,92.20
2018-12-12T04:48:58.158Z,91.68
2018-12-12T04:49:58.145Z,92.03
2018-12-12T04:50:58.147Z,92.66
2018-12-12T04:51:58.127Z,92.14
2018-12-12T04:52:58.105Z,92.66
2018-12-12T04:53:58.097Z,92.76
2018-12-12T04:54:58.093Z,93.07
2018-12-12T04:55:58.081Z,93.07
2018-12-12T04:56:58.081Z,92.76
2018-12-12T04:57:58.051Z,92.45
2018-12-12T04:58:58.042Z,92.24
2018-12-12T04:59:58.029Z,92.97
2018-12-12T05:00:58.021Z,93.18
2018-12-12T05:01:58.049Z,93.49
2018-12-12T05:02:57.999Z,93.18
2018-12-12T05:03:57.993Z,93.29
2018-12-12T05:04:57.986Z,92.97
2018-12-12T05:05:57.975Z,92.97
2018-12-12T05:06:57.975Z,93.60
2018-12-12T05:07:57.962Z,93.33
2018-12-12T05:08:57.930Z,92.76
2018-12-12T05:09:57.918Z,93.49
2018-12-12T05:10:57.921Z,93.54
2018-12-12T05:11:57.900Z,93.54
2018-12-12T05:12:57.916Z,93.12
2018-12-12T05:13:57.895Z,93.01
2018-12-12T05:14:57.864Z,93.74
2018-12-12T05:15:57.856Z,93.23
2018-12-12T05:16:57.861Z,93.33
2018-12-12T05:17:57.859Z,93.54
2018-12-12T05:18:57.833Z,93.01
2018-12-12T05:19:57.855Z,93.23
2018-12-12T05:20:57.800Z,93.33
2018-12-12T05:21:57.785Z,93.39
2018-12-12T05:22:57.789Z,93.18
2018-12-12T05:23:57.778Z,93.29
2018-12-12T05:24:57.775Z,93.18
2018-12-12T05:25:57.747Z,93.60
2018-12-12T05:26:57.735Z,93.60
2018-12-12T05:27:57.747Z,93.70
2018-12-12T05:28:57.716Z,93.39
2018-12-12T05:29:57.717Z,93.39
2018-12-12T05:30:57.715Z,92.24
2018-12-12T05:31:57.675Z,92.55
2018-12-12T05:32:57.680Z,93.60
2018-12-12T05:33:57.686Z,93.49
2018-12-12T05:34:57.661Z,92.24
2018-12-12T05:35:57.637Z,92.45
2018-12-12T05:36:57.623Z,92.61
2018-12-12T05:37:57.624Z,92.55
2018-12-12T05:38:57.680Z,92.14
2018-12-12T05:39:57.612Z,93.60
2018-12-12T05:40:57.645Z,93.03
2018-12-12T05:41:57.566Z,92.55
2018-12-12T05:42:57.597Z,93.18
2018-12-12T05:43:57.788Z,93.39
2018-12-12T05:44:57.540Z,93.18
2018-12-12T05:45:57.522Z,93.35
2018-12-12T05:46:57.563Z,93.29
2018-12-12T05:47:57.525Z,92.24
2018-12-12T05:48:57.509Z,92.41
2018-12-12T05:49:57.477Z,92.61
2018-12-12T05:50:57.468Z,93.49
2018-12-12T05:51:57.478Z,93.39
2018-12-12T05:52:57.458Z,93.55
2018-12-12T05:53:57.461Z,93.18
2018-12-12T05:54:57.429Z,93.49
2018-12-12T05:56:02.431Z,93.29
2018-12-12T05:56:58.455Z,93.18
2018-12-12T05:57:57.389Z,93.39
2018-12-12T05:58:57.403Z,92.97
2018-12-12T05:59:57.371Z,92.86
2018-12-12T06:00:57.362Z,94.12
2018-12-12T06:01:57.349Z,94.32
2018-12-12T06:02:57.343Z,94.32
2018-12-12T06:03:57.341Z,94.22
2018-12-12T06:04:57.315Z,93.29
2018-12-12T06:05:57.305Z,93.03
2018-12-12T06:06:57.289Z,93.24
2018-12-12T06:07:57.283Z,93.35
2018-12-12T06:08:57.282Z,93.35
2018-12-12T06:09:57.266Z,93.39
2018-12-12T06:10:57.244Z,93.35
2018-12-12T06:11:57.240Z,93.29
2018-12-12T06:12:57.991Z,93.39
2018-12-12T06:13:57.248Z,93.14
2018-12-12T06:14:57.258Z,93.35
2018-12-12T06:15:57.238Z,93.24
2018-12-12T06:16:57.179Z,93.14
2018-12-12T06:17:57.179Z,93.24
2018-12-12T06:18:57.172Z,92.93
2018-12-12T06:19:57.152Z,92.93
2018-12-12T06:20:57.140Z,92.72
2018-12-12T06:21:57.147Z,93.35
2018-12-12T06:22:57.117Z,93.24
2018-12-12T06:23:57.122Z,93.45
2018-12-12T06:24:57.114Z,92.61
2018-12-12T06:25:57.084Z,92.61
2018-12-12T06:26:57.082Z,92.10
2018-12-12T06:27:57.059Z,93.24
2018-12-12T06:28:57.065Z,93.20
2018-12-12T06:29:57.042Z,92.99
2018-12-12T06:30:57.046Z,92.72
2018-12-12T06:31:57.037Z,92.47
2018-12-12T06:32:57.003Z,93.03
2018-12-12T06:33:57.014Z,92.88
2018-12-12T06:34:56.990Z,92.93
2018-12-12T06:35:56.973Z,92.68
2018-12-12T06:36:56.982Z,92.78
2018-12-12T06:37:56.983Z,92.88
2018-12-12T06:38:56.974Z,92.99
2018-12-12T06:39:56.926Z,92.36
2018-12-12T06:40:56.929Z,92.57
2018-12-12T06:41:56.905Z,92.47
2018-12-12T06:42:56.913Z,92.05
2018-12-12T06:43:56.933Z,92.36
2018-12-12T06:44:56.877Z,92.51
2018-12-12T06:45:56.865Z,92.36
2018-12-12T06:46:56.848Z,92.47
2018-12-12T06:47:56.853Z,92.36
2018-12-12T06:48:56.858Z,92.36
2018-12-12T06:49:56.833Z,92.05
2018-12-12T06:50:56.804Z,92.26
2018-12-12T06:51:56.797Z,92.78
2018-12-12T06:52:56.790Z,92.57
2018-12-12T06:53:56.771Z,92.36
2018-12-12T06:54:56.775Z,92.57
2018-12-12T06:55:56.755Z,92.36
2018-12-12T06:56:56.737Z,92.16
2018-12-12T06:57:56.746Z,92.99
2018-12-12T06:58:56.718Z,93.20
2018-12-12T06:59:56.725Z,92.26
2018-12-12T07:00:56.718Z,92.68
2018-12-12T07:01:56.694Z,92.99
2018-12-12T07:02:56.677Z,92.78
2018-12-12T07:03:57.444Z,92.47
2018-12-12T07:04:56.668Z,92.36
2018-12-12T07:05:56.658Z,92.20
2018-12-12T07:06:56.641Z,92.10
2018-12-12T07:07:56.620Z,92.26
2018-12-12T07:08:56.606Z,92.41
2018-12-12T07:09:56.611Z,92.61
2018-12-12T07:10:56.590Z,92.30
2018-12-12T07:11:56.599Z,91.99
2018-12-12T07:12:56.568Z,92.41
2018-12-12T07:13:56.556Z,92.41
2018-12-12T07:14:56.553Z,92.30
2018-12-12T07:15:56.534Z,92.20
2018-12-12T07:16:56.521Z,92.20
2018-12-12T07:17:56.535Z,92.61
2018-12-12T07:18:56.501Z,92.72
2018-12-12T07:19:56.539Z,92.93
2018-12-12T07:20:56.476Z,92.41
2018-12-12T07:21:57.450Z,92.41
2018-12-12T07:22:56.464Z,92.93
2018-12-12T07:23:56.443Z,91.78
2018-12-12T07:24:56.446Z,91.68
2018-12-12T07:25:56.424Z,91.78
2018-12-12T07:26:56.409Z,91.62
2018-12-12T07:27:56.404Z,91.62
2018-12-12T07:28:56.389Z,91.89
2018-12-12T07:29:56.397Z,92.10
2018-12-12T07:30:56.366Z,91.99
2018-12-12T07:31:56.352Z,91.83
2018-12-12T07:32:56.344Z,91.93
2018-12-12T07:34:00.883Z,92.55
2018-12-12T07:34:56.364Z,91.93
2018-12-12T07:35:59.481Z,92.24
2018-12-12T07:36:56.301Z,92.14
2018-12-12T07:37:56.287Z,92.55
2018-12-12T07:38:56.292Z,92.10
2018-12-12T07:39:56.284Z,92.03
2018-12-12T07:40:56.253Z,91.89
2018-12-12T07:41:56.276Z,91.83
2018-12-12T07:42:56.245Z,92.45
2018-12-12T07:43:56.220Z,92.03
2018-12-12T07:44:56.225Z,92.30
2018-12-12T07:45:56.212Z,91.58
2018-12-12T07:46:56.187Z,92.41
2018-12-12T07:48:01.408Z,92.45
2018-12-12T07:48:57.166Z,92.51
2018-12-12T07:49:56.178Z,92.14
2018-12-12T07:50:56.154Z,92.14
2018-12-12T07:51:56.140Z,92.55
2018-12-12T07:52:56.122Z,92.55
2018-12-12T07:53:56.110Z,92.10
2018-12-12T07:54:56.113Z,92.35
2018-12-12T07:55:56.094Z,92.10
2018-12-12T07:56:56.087Z,92.45
2018-12-12T07:57:56.095Z,92.45
2018-12-12T07:58:56.053Z,92.45
2018-12-12T07:59:56.056Z,92.30
2018-12-12T08:00:56.032Z,91.89
2018-12-12T08:01:56.021Z,92.51
2018-12-12T08:02:56.026Z,92.10
2018-12-12T08:03:56.000Z,92.20
2018-12-12T08:04:56.028Z,92.03
2018-12-12T08:05:55.985Z,91.99
2018-12-12T08:06:56.361Z,92.24
2018-12-12T08:07:55.974Z,92.41
2018-12-12T08:08:55.958Z,92.41
2018-12-12T08:09:55.993Z,92.24
2018-12-12T08:10:55.984Z,92.10
2018-12-12T08:11:55.918Z,91.99
2018-12-12T08:12:55.903Z,91.89
2018-12-12T08:13:55.902Z,91.99
2018-12-12T08:14:55.880Z,92.36
2018-12-12T08:15:55.900Z,91.58
2018-12-12T08:16:55.856Z,91.47
2018-12-12T08:17:55.847Z,91.16
2018-12-12T08:18:55.883Z,91.37
2018-12-12T08:19:55.829Z,91.37
2018-12-12T08:20:55.834Z,91.58
2018-12-12T08:21:55.802Z,91.58
2018-12-12T08:22:55.853Z,91.58
2018-12-12T08:23:55.778Z,91.68
2018-12-12T08:24:55.774Z,91.58
2018-12-12T08:25:55.780Z,91.58
2018-12-12T08:26:55.754Z,91.37
2018-12-12T08:27:55.736Z,91.58
2018-12-12T08:28:55.724Z,91.68
2018-12-12T08:29:55.731Z,91.27
2018-12-12T08:30:55.722Z,91.27
2018-12-12T08:31:55.794Z,91.33
2018-12-12T08:32:55.678Z,91.53
2018-12-12T08:33:55.686Z,91.33
2018-12-12T08:34:55.661Z,91.53
2018-12-12T08:35:55.670Z,90.70
2018-12-12T08:36:55.647Z,91.12
2018-12-12T08:37:55.626Z,91.08
2018-12-12T08:38:55.627Z,90.29
2018-12-12T08:39:55.612Z,90.14
2018-12-12T08:40:55.615Z,90.45
2018-12-12T08:41:55.615Z,90.45
2018-12-12T08:42:55.581Z,90.04
2018-12-12T08:43:55.564Z,89.94
2018-12-12T08:44:55.557Z,90.04
2018-12-12T08:45:55.615Z,89.62
2018-12-12T08:46:55.550Z,89.11
2018-12-12T08:47:55.520Z,89.48
2018-12-12T08:48:55.504Z,89.27
2018-12-12T08:49:55.496Z,89.73
2018-12-12T08:50:55.500Z,89.31
2018-12-12T08:51:55.485Z,89.48
2018-12-12T08:52:55.481Z,89.17
2018-12-12T08:53:55.461Z,89.17
2018-12-12T08:54:55.435Z,89.27
2018-12-12T08:55:55.439Z,89.06
2018-12-12T08:56:55.419Z,89.48
2018-12-12T08:57:55.417Z,89.27
2018-12-12T08:58:55.394Z,89.23
2018-12-12T08:59:55.401Z,89.23
2018-12-12T09:00:55.408Z,88.92
2018-12-12T09:01:55.378Z,88.82
2018-12-12T09:02:55.352Z,88.57
2018-12-12T09:03:55.346Z,88.05
2018-12-12T09:04:55.369Z,87.53
2018-12-12T09:05:55.314Z,88.63
2018-12-12T09:06:55.314Z,86.62
2018-12-12T09:07:55.294Z,85.24
2018-12-12T09:08:55.292Z,84.27
2018-12-12T09:09:55.296Z,83.25
2018-12-12T09:10:55.288Z,81.77
2018-12-12T09:11:55.279Z,81.15
2018-12-12T09:12:55.239Z,81.49
2018-12-12T09:13:55.226Z,82.36
2018-12-12T09:14:55.241Z,83.78
2018-12-12T09:15:55.220Z,84.44
2018-12-12T09:16:55.227Z,85.06
2018-12-12T09:17:55.184Z,83.99
2018-12-12T09:18:55.181Z,84.27
2018-12-12T09:19:55.164Z,83.78
2018-12-12T09:20:55.166Z,83.54
2018-12-12T09:21:55.155Z,82.78
2018-12-12T09:22:55.130Z,80.70
2018-12-12T09:23:55.205Z,78.97
2018-12-12T09:24:55.106Z,77.25
2018-12-12T09:25:55.099Z,75.70
2018-12-12T09:26:55.115Z,75.70
2018-12-12T09:27:55.094Z,75.49
2018-12-12T09:28:55.063Z,75.46
2018-12-12T09:29:55.051Z,73.98
2018-12-12T09:30:55.042Z,74.71
2018-12-12T09:31:55.464Z,73.85
2018-12-12T09:32:55.036Z,72.47
2018-12-12T09:33:55.026Z,72.30
2018-12-12T09:34:54.998Z,72.78
2018-12-12T09:35:54.988Z,72.47
2018-12-12T09:36:54.985Z,71.82
2018-12-12T09:37:54.969Z,71.72
2018-12-12T09:38:54.960Z,70.38
2018-12-12T09:39:54.942Z,69.97
2018-12-12T09:40:54.927Z,70.69
2018-12-12T09:41:54.938Z,70.76
2018-12-12T09:42:54.905Z,69.39
2018-12-12T09:43:54.904Z,69.32
2018-12-12T09:44:54.898Z,70.14
2018-12-12T09:45:54.879Z,70.35
2018-12-12T09:46:54.916Z,70.59
2018-12-12T09:47:54.860Z,71.31
2018-12-12T09:48:54.839Z,72.06
2018-12-12T09:49:54.836Z,72.58
2018-12-12T09:50:54.863Z,72.24
2018-12-12T09:51:54.844Z,72.00
2018-12-12T09:52:54.808Z,70.69
2018-12-12T09:53:54.788Z,72.23
2018-12-12T09:54:54.793Z,73.05
2018-12-12T09:55:54.773Z,73.33
2018-12-12T09:56:54.777Z,73.16
2018-12-12T09:57:54.738Z,73.68
2018-12-12T09:58:54.727Z,73.40
2018-12-12T09:59:54.721Z,73.71
2018-12-12T10:00:54.714Z,73.60
2018-12-12T10:01:54.719Z,73.36
2018-12-12T10:02:54.689Z,72.96
2018-12-12T10:03:54.677Z,73.05
2018-12-12T10:04:54.665Z,73.71
2018-12-12T10:05:54.652Z,74.12
2018-12-12T10:06:54.670Z,74.26
2018-12-12T10:07:54.656Z,75.18
2018-12-12T10:08:54.681Z,74.57
2018-12-12T10:09:54.676Z,74.77
2018-12-12T10:10:54.709Z,74.77
2018-12-12T10:11:54.591Z,75.09
2018-12-12T10:12:54.591Z,75.29
2018-12-12T10:13:54.572Z,75.43
2018-12-12T10:14:54.622Z,76.04
2018-12-12T10:15:54.541Z,76.25
2018-12-12T10:16:54.530Z,75.43
2018-12-12T10:17:54.540Z,75.53
2018-12-12T10:18:54.510Z,75.53
2018-12-12T10:19:54.499Z,75.87
2018-12-12T10:20:54.494Z,76.39
2018-12-12T10:21:54.515Z,75.46
2018-12-12T10:22:54.486Z,76.64
2018-12-12T10:23:54.453Z,77.36
2018-12-12T10:24:54.449Z,78.11
2018-12-12T10:25:54.433Z,77.81
2018-12-12T10:26:54.417Z,77.70
2018-12-12T10:27:54.421Z,77.91
2018-12-12T10:28:54.396Z,77.91
2018-12-12T10:29:54.403Z,77.56
2018-12-12T10:30:54.382Z,76.60
2018-12-12T10:31:54.382Z,75.87
2018-12-12T10:32:54.377Z,76.25
2018-12-12T10:33:54.350Z,76.01
2018-12-12T10:34:54.335Z,74.43
2018-12-12T10:35:54.338Z,73.88
2018-12-12T10:36:54.321Z,72.85
2018-12-12T10:37:54.306Z,71.37
2018-12-12T10:38:54.326Z,71.65
2018-12-12T10:39:54.285Z,70.72
2018-12-12T10:40:54.274Z,70.42
2018-12-12T10:41:54.253Z,71.58
2018-12-12T10:42:54.256Z,70.96
2018-12-12T10:43:54.230Z,71.27
2018-12-12T10:44:54.221Z,71.69
2018-12-12T10:45:54.209Z,71.27
2018-12-12T10:46:54.202Z,70.65
2018-12-12T10:47:54.203Z,70.45
2018-12-12T10:48:54.174Z,70.86
2018-12-12T10:49:54.162Z,69.90
2018-12-12T10:50:54.161Z,69.07
2018-12-12T10:51:54.142Z,67.94
2018-12-12T10:52:54.155Z,68.35
2018-12-12T10:53:54.129Z,68.49
2018-12-12T10:54:54.155Z,69.35
2018-12-12T10:55:54.101Z,70.17
2018-12-12T10:56:54.084Z,71.03
2018-12-12T10:57:54.092Z,70.92
2018-12-12T10:58:54.063Z,71.34
2018-12-12T10:59:54.068Z,71.13
2018-12-12T11:00:54.038Z,71.03
2018-12-12T11:01:54.029Z,71.34
2018-12-12T11:02:54.034Z,71.44
2018-12-12T11:03:54.008Z,71.41
2018-12-12T11:04:54.000Z,71.13
2018-12-12T11:05:54.002Z,71.64
2018-12-12T11:06:53.972Z,71.75
2018-12-12T11:07:54.017Z,72.58
2018-12-12T11:08:53.960Z,72.50
2018-12-12T11:09:53.942Z,72.50
2018-12-12T11:10:53.931Z,72.50
2018-12-12T11:11:53.933Z,72.40
2018-12-12T11:12:53.935Z,72.40
2018-12-12T11:13:53.898Z,72.61
2018-12-12T11:14:53.898Z,72.40
2018-12-12T11:15:53.879Z,72.30
2018-12-12T11:16:53.869Z,72.33
2018-12-12T11:17:53.870Z,72.54
2018-12-12T11:18:53.843Z,72.95
2018-12-12T11:19:53.836Z,73.36
2018-12-12T11:20:53.819Z,73.36
2018-12-12T11:21:53.812Z,73.57
2018-12-12T11:22:53.827Z,73.88
2018-12-12T11:23:53.789Z,74.19
2018-12-12T11:24:53.798Z,73.98
2018-12-12T11:25:53.767Z,73.47
2018-12-12T11:26:53.754Z,73.36
2018-12-12T11:27:53.754Z,73.16
2018-12-12T11:28:53.746Z,73.05
2018-12-12T11:29:53.717Z,72.85
2018-12-12T11:30:53.718Z,72.74
2018-12-12T11:31:53.707Z,73.26
2018-12-12T11:32:53.698Z,73.36
2018-12-12T11:33:53.681Z,73.47
2018-12-12T11:34:53.670Z,73.36
2018-12-12T11:35:53.652Z,73.77
2018-12-12T11:36:53.644Z,74.08
2018-12-12T11:37:53.647Z,74.19
2018-12-12T11:38:53.625Z,73.68
2018-12-12T11:39:53.616Z,73.91
2018-12-12T11:40:53.596Z,74.02
2018-12-12T11:41:53.587Z,74.22
2018-12-12T11:42:53.593Z,74.22
2018-12-12T11:43:53.562Z,74.12
2018-12-12T11:44:53.565Z,74.02
2018-12-12T11:45:53.542Z,74.02
2018-12-12T11:46:53.547Z,74.12
2018-12-12T11:47:53.525Z,74.22
2018-12-12T11:48:53.521Z,74.02
2018-12-12T11:49:53.496Z,74.53
2018-12-12T11:50:53.492Z,74.63
2018-12-12T11:51:53.485Z,74.33
2018-12-12T11:52:53.463Z,74.84
2018-12-12T11:53:53.468Z,74.84
2018-12-12T11:54:53.439Z,74.84
2018-12-12T11:55:53.433Z,74.74
2018-12-12T11:56:53.418Z,74.95
2018-12-12T11:57:53.405Z,74.84
2018-12-12T11:58:53.433Z,74.84
2018-12-12T11:59:53.393Z,75.05
2018-12-12T12:00:53.375Z,74.84
2018-12-12T12:01:53.380Z,75.46
2018-12-12T12:02:53.359Z,75.15
2018-12-12T12:03:56.753Z,75.77
2018-12-12T12:04:53.330Z,74.84
2018-12-12T12:05:53.325Z,75.26
2018-12-12T12:06:53.309Z,74.95
2018-12-12T12:07:53.315Z,74.12
2018-12-12T12:08:53.307Z,74.36
2018-12-12T12:09:53.274Z,74.22
2018-12-12T12:10:53.278Z,74.22
2018-12-12T12:11:53.275Z,74.02
2018-12-12T12:12:53.251Z,73.71
2018-12-12T12:13:53.246Z,73.60
2018-12-12T12:14:53.232Z,74.12
2018-12-12T12:15:53.213Z,74.12
2018-12-12T12:16:53.197Z,74.12
2018-12-12T12:17:53.186Z,74.02
2018-12-12T12:18:53.463Z,74.02
2018-12-12T12:19:53.187Z,74.22
2018-12-12T12:20:53.171Z,74.22
2018-12-12T12:21:53.140Z,74.43
2018-12-12T12:22:53.136Z,74.88
2018-12-12T12:23:53.133Z,74.36
2018-12-12T12:24:53.112Z,74.77
2018-12-12T12:25:53.098Z,74.77
2018-12-12T12:26:53.098Z,74.98
2018-12-12T12:27:53.077Z,75.29
2018-12-12T12:28:53.086Z,75.22
2018-12-12T12:29:53.056Z,75.95
2018-12-12T12:30:53.057Z,76.36
2018-12-12T12:31:53.041Z,76.26
2018-12-12T12:32:53.045Z,76.53
2018-12-12T12:33:53.022Z,76.12
2018-12-12T12:34:53.000Z,75.60
2018-12-12T12:35:52.994Z,75.91
2018-12-12T12:36:52.974Z,76.12
2018-12-12T12:37:52.980Z,75.09
2018-12-12T12:38:52.995Z,75.39
2018-12-12T12:39:52.949Z,76.43
2018-12-12T12:40:52.945Z,76.22
2018-12-12T12:41:52.928Z,75.91
2018-12-12T12:42:52.918Z,75.53
2018-12-12T12:43:52.919Z,75.81
2018-12-12T12:44:52.897Z,75.49
2018-12-12T12:45:52.876Z,75.60
2018-12-12T12:46:52.870Z,75.91
2018-12-12T12:47:52.854Z,75.60
2018-12-12T12:48:52.857Z,75.81
2018-12-12T12:49:52.842Z,75.49
2018-12-12T12:50:52.870Z,75.81
2018-12-12T12:51:52.810Z,76.01